Time;durP1;ratioP1;P1;durP2;ratioP2;P2;SDS_P1;SDS_P2;PMS_P1;PMS_P2;Temp;Humidity;BMP_temperature;BMP_pressure;BME280_temperature;BME280_humidity;BME280_pressure;Samples;Min_cycle;Max_cycle;Signal;HPM_P1;HPM_P2
2024/01/11 00:00:53;;;;;;;35.53;13.80;;;;;;;-0.06;55.34;102865.44;5023567;27;98546;-75
2024/01/11 00:03:20;;;;;;;28.52;13.35;;;;;;;-0.04;55.17;102861.22;5020650;27;98252;-75
2024/01/11 00:05:46;;;;;;;31.67;13.30;;;;;;;0.04;55.85;102854.63;5010799;27;101110;-74
2024/01/11 00:08:13;;;;;;;28.00;12.60;;;;;;;-0.06;55.67;102863.75;5027438;27;96824;-73
2024/01/11 00:10:39;;;;;;;28.35;11.93;;;;;;;-0.23;55.70;102854.38;5023267;27;96852;-73
2024/01/11 00:13:06;;;;;;;26.25;11.85;;;;;;;-0.07;55.50;102850.72;5021752;27;98188;-75
2024/01/11 00:15:41;;;;;;;34.47;12.02;;;;;;;-0.10;55.66;102855.75;5018126;28;99432;-75
2024/01/11 00:18:09;;;;;;;32.13;13.43;;;;;;;-0.30;56.27;102857.53;5027556;27;96821;-74
2024/01/11 00:20:36;;;;;;;29.85;13.45;;;;;;;-0.34;56.48;102854.75;5020933;27;97085;-77
2024/01/11 00:23:02;;;;;;;35.60;14.30;;;;;;;-0.26;55.83;102842.97;5021822;27;97838;-76
2024/01/11 00:25:29;;;;;;;30.02;12.98;;;;;;;-0.13;56.07;102840.91;5024448;27;101467;-76
2024/01/11 00:27:58;;;;;;;27.42;11.32;;;;;;;-0.66;57.70;102843.88;5020269;27;97487;-77
2024/01/11 00:30:25;;;;;;;26.45;10.57;;;;;;;-1.36;60.29;102843.28;5016684;27;96949;-77
2024/01/11 00:32:51;;;;;;;29.00;11.63;;;;;;;-1.24;60.41;102835.19;5025153;27;98806;-75
2024/01/11 00:35:19;;;;;;;25.65;10.70;;;;;;;-1.13;60.50;102821.00;5019785;27;97622;-74
2024/01/11 00:37:46;;;;;;;25.40;10.50;;;;;;;-0.74;60.41;102826.19;5022429;27;97918;-74
2024/01/11 00:40:13;;;;;;;22.40;9.35;;;;;;;-0.70;59.77;102823.78;5021034;27;97068;-76
2024/01/11 00:42:39;;;;;;;19.38;8.35;;;;;;;-0.45;59.43;102820.50;5019948;27;101834;-75
2024/01/11 00:45:07;;;;;;;24.52;9.65;;;;;;;-0.36;58.58;102800.13;5019549;27;98708;-76
2024/01/11 00:47:33;;;;;;;20.80;8.18;;;;;;;-1.27;61.32;102780.59;5023058;27;97149;-75
2024/01/11 00:49:59;;;;;;;18.02;8.50;;;;;;;-1.40;61.95;102789.53;5026775;27;97597;-75
2024/01/11 00:52:27;;;;;;;18.30;7.80;;;;;;;-1.27;61.87;102789.25;5015194;27;96738;-77
2024/01/11 00:54:53;;;;;;;17.80;7.63;;;;;;;-1.30;62.25;102812.44;5017236;27;101115;-77
2024/01/11 00:57:20;;;;;;;16.02;7.28;;;;;;;-0.71;60.92;102795.13;5019849;27;96886;-77
2024/01/11 00:59:46;;;;;;;20.60;8.93;;;;;;;-0.98;61.06;102785.34;5022594;27;96802;-74
2024/01/11 01:02:12;;;;;;;22.23;8.90;;;;;;;-0.85;61.27;102781.56;5021563;27;99365;-75
2024/01/11 01:04:39;;;;;;;19.73;8.85;;;;;;;-0.93;61.41;102790.75;5013652;27;101483;-74
2024/01/11 01:07:06;;;;;;;20.00;8.80;;;;;;;-0.68;60.95;102785.78;5015952;27;96962;-74
2024/01/11 01:09:34;;;;;;;16.42;6.95;;;;;;;-2.59;66.03;102758.75;5018774;28;97818;-76
2024/01/11 01:12:01;;;;;;;20.45;7.15;;;;;;;-2.92;69.06;102751.06;5023899;27;99221;-76
2024/01/11 01:14:27;;;;;;;21.63;8.32;;;;;;;-2.58;69.33;102758.81;5017510;27;98745;-76
2024/01/11 01:16:53;;;;;;;26.15;8.98;;;;;;;-2.23;68.79;102763.13;5014856;28;97527;-76
2024/01/11 01:19:20;;;;;;;27.30;9.35;;;;;;;-1.91;67.54;102771.56;5021134;27;97283;-76
2024/01/11 01:21:46;;;;;;;24.27;8.77;;;;;;;-1.71;66.23;102755.25;5022113;27;99036;-76
2024/01/11 01:24:13;;;;;;;22.50;8.63;;;;;;;-1.96;67.26;102757.47;5016120;27;98721;-76
2024/01/11 01:26:41;;;;;;;27.80;8.73;;;;;;;-1.91;67.22;102767.28;5022178;27;96929;-76
2024/01/11 01:29:08;;;;;;;25.33;8.77;;;;;;;-1.35;66.03;102767.28;5023986;27;96864;-76
2024/01/11 01:31:37;;;;;;;27.35;9.25;;;;;;;-1.08;64.89;102771.91;5017664;27;99016;-77
2024/01/11 01:34:04;;;;;;;20.15;7.90;;;;;;;-1.58;65.79;102772.25;5017874;27;99319;-76
2024/01/11 01:36:30;;;;;;;22.83;9.13;;;;;;;-1.52;66.40;102782.91;5025073;27;96833;-76
2024/01/11 01:38:56;;;;;;;18.85;7.35;;;;;;;-1.29;65.21;102788.28;5021793;27;96820;-77
2024/01/11 01:41:23;;;;;;;18.35;6.85;;;;;;;-1.47;65.55;102776.22;5020673;27;97842;-73
2024/01/11 01:43:51;;;;;;;17.17;6.50;;;;;;;-1.70;66.13;102772.53;5017779;27;98794;-73
2024/01/11 01:46:22;;;;;;;17.88;6.68;;;;;;;-1.96;67.63;102776.50;5018287;27;99054;-73
2024/01/11 01:48:49;;;;;;;19.63;6.88;;;;;;;-1.69;67.26;102775.22;5020930;27;97289;-73
2024/01/11 01:51:16;;;;;;;16.00;6.38;;;;;;;-1.51;67.25;102772.56;5025465;27;98240;-73
2024/01/11 01:53:42;;;;;;;17.08;6.72;;;;;;;-1.58;67.72;102767.06;5020266;27;99169;-73
2024/01/11 01:56:10;;;;;;;14.25;6.13;;;;;;;-1.68;68.17;102766.63;5023517;27;97148;-73
2024/01/11 01:58:37;;;;;;;17.88;7.18;;;;;;;-1.04;65.96;102784.19;5023595;27;97499;-73
2024/01/11 02:01:05;;;;;;;17.40;6.30;;;;;;;-0.88;65.78;102790.13;5025509;27;100183;-73
2024/01/11 02:03:32;;;;;;;13.73;6.63;;;;;;;-0.40;62.99;102785.25;5027330;27;101168;-72
2024/01/11 02:05:59;;;;;;;17.58;7.43;;;;;;;-0.48;62.59;102777.13;5016162;27;98845;-72
2024/01/11 02:08:28;;;;;;;18.15;6.55;;;;;;;-0.39;62.42;102783.53;5012590;27;97058;-71
2024/01/11 02:10:55;;;;;;;16.90;6.57;;;;;;;-0.41;62.74;102794.75;5026664;27;100594;-73
2024/01/11 02:13:22;;;;;;;16.08;6.68;;;;;;;-0.14;61.80;102804.50;5025877;27;98182;-72
2024/01/11 02:15:49;;;;;;;17.63;6.82;;;;;;;-0.69;63.57;102807.38;5028403;27;97373;-72
2024/01/11 02:18:16;;;;;;;19.33;7.20;;;;;;;-0.42;62.84;102815.47;5018912;27;96990;-72
2024/01/11 02:20:43;;;;;;;16.60;7.53;;;;;;;-0.36;63.23;102810.50;5027350;27;99200;-74
2024/01/11 02:23:18;;;;;;;17.33;7.25;;;;;;;-0.39;63.36;102799.97;5023160;27;100843;-75
2024/01/11 02:25:46;;;;;;;20.90;7.30;;;;;;;-0.26;63.63;102797.06;5019603;27;96767;-76
2024/01/11 02:28:12;;;;;;;20.10;7.43;;;;;;;-0.32;62.89;102801.13;5028948;27;97356;-75
2024/01/11 02:30:39;;;;;;;21.40;8.27;;;;;;;-0.68;64.64;102814.34;5023807;27;99317;-74
2024/01/11 02:33:06;;;;;;;19.42;8.07;;;;;;;-0.29;63.61;102814.25;5025440;27;98898;-75
2024/01/11 02:35:33;;;;;;;21.33;7.95;;;;;;;-0.38;63.87;102809.56;5021423;27;97568;-75
2024/01/11 02:38:01;;;;;;;22.67;8.18;;;;;;;-0.43;64.08;102809.38;5025688;27;97590;-75
2024/01/11 02:40:27;;;;;;;20.98;7.95;;;;;;;-0.53;64.61;102806.34;5026574;27;99061;-75
2024/01/11 02:42:55;;;;;;;23.00;8.63;;;;;;;-0.70;64.92;102810.78;5020379;27;99295;-74
2024/01/11 02:45:21;;;;;;;24.98;9.25;;;;;;;-0.29;63.89;102801.25;5013617;27;97327;-74
2024/01/11 02:47:48;;;;;;;26.80;8.82;;;;;;;-0.73;64.65;102792.50;5023686;27;96840;-74
2024/01/11 02:50:14;;;;;;;19.02;8.20;;;;;;;-1.27;67.26;102784.06;5024030;27;100340;-75
2024/01/11 02:52:41;;;;;;;20.50;8.40;;;;;;;-1.95;70.35;102775.69;5026077;27;98866;-74
2024/01/11 02:55:08;;;;;;;19.80;8.50;;;;;;;-1.90;71.07;102774.19;5029097;27;97705;-73
2024/01/11 02:57:35;;;;;;;20.45;8.88;;;;;;;-1.90;71.90;102779.38;5025174;27;97283;-73
2024/01/11 03:00:03;;;;;;;22.23;9.32;;;;;;;-1.65;70.82;102778.84;5022102;27;99038;-73
2024/01/11 03:02:29;;;;;;;20.15;8.07;;;;;;;-1.63;71.78;102770.31;5019243;27;101022;-73
2024/01/11 03:04:56;;;;;;;27.10;8.43;;;;;;;-1.81;71.54;102778.94;5021856;27;97165;-73
2024/01/11 03:07:22;;;;;;;20.67;8.52;;;;;;;-1.72;70.94;102777.69;5028276;27;98484;-73
2024/01/11 03:09:48;;;;;;;24.63;8.30;;;;;;;-1.45;70.60;102791.03;5017425;27;99432;-75
2024/01/11 03:12:15;;;;;;;22.33;8.35;;;;;;;-0.84;67.74;102798.91;5027813;27;98734;-75
2024/01/11 03:14:41;;;;;;;20.65;8.43;;;;;;;-1.10;67.80;102789.09;5019580;27;97559;-75
2024/01/11 03:17:09;;;;;;;21.23;7.68;;;;;;;-1.09;67.56;102791.78;5018548;27;97415;-75
2024/01/11 03:19:40;;;;;;;19.17;7.38;;;;;;;-1.51;69.64;102789.84;5019288;27;99374;-75
2024/01/11 03:22:06;;;;;;;21.23;7.47;;;;;;;-1.85;71.00;102797.75;5026814;27;97972;-75
2024/01/11 03:24:33;;;;;;;18.27;7.72;;;;;;;-1.69;71.63;102787.28;5021864;27;98731;-74
2024/01/11 03:26:59;;;;;;;21.92;6.35;;;;;;;-1.50;69.47;102789.00;5021659;27;97507;-74
2024/01/11 03:29:26;;;;;;;18.05;6.50;;;;;;;-1.43;69.60;102778.09;5015341;27;99720;-75
2024/01/11 03:31:52;;;;;;;15.55;6.60;;;;;;;-1.59;69.76;102781.72;5017260;27;99313;-76
2024/01/11 03:34:20;;;;;;;14.48;6.07;;;;;;;-1.66;69.64;102777.97;5025194;27;97170;-75
2024/01/11 03:36:46;;;;;;;16.10;6.80;;;;;;;-1.49;69.45;102780.41;5020067;28;97686;-75
2024/01/11 03:39:12;;;;;;;15.10;6.22;;;;;;;-1.35;69.02;102772.47;5024853;27;99275;-74
2024/01/11 03:41:44;;;;;;;20.50;6.35;;;;;;;-1.29;68.57;102757.16;5022520;27;100729;-74
2024/01/11 03:44:10;;;;;;;18.95;6.82;;;;;;;-1.08;68.24;102751.16;5024969;27;96690;-74
2024/01/11 03:46:37;;;;;;;16.77;6.45;;;;;;;-1.39;69.48;102741.16;5019480;27;97336;-73
2024/01/11 03:49:03;;;;;;;17.85;6.85;;;;;;;-1.45;70.03;102727.91;5021491;27;99116;-74
2024/01/11 03:51:31;;;;;;;20.50;7.72;;;;;;;-1.33;70.03;102726.75;5022940;27;99365;-73
2024/01/11 03:53:58;;;;;;;17.70;6.72;;;;;;;-1.28;69.90;102732.13;5021257;28;96729;-73
2024/01/11 03:56:24;;;;;;;17.02;6.57;;;;;;;-0.95;69.49;102722.31;5016745;27;97626;-74
2024/01/11 03:58:50;;;;;;;14.63;5.90;;;;;;;-1.16;70.15;102726.56;5015582;27;98962;-74
2024/01/11 04:01:17;;;;;;;24.42;7.90;;;;;;;-1.46;72.84;102737.38;5017111;27;97647;-74
2024/01/11 04:03:43;;;;;;;23.50;7.70;;;;;;;-1.07;71.72;102721.78;5024146;27;100307;-73
2024/01/11 04:06:10;;;;;;;21.98;8.13;;;;;;;-1.04;71.66;102729.69;5027640;27;97544;-73
2024/01/11 04:08:38;;;;;;;18.95;7.72;;;;;;;-0.83;71.21;102723.72;5026548;27;101698;-73
2024/01/11 04:11:04;;;;;;;22.80;7.65;;;;;;;-0.79;71.02;102714.38;5018318;27;101637;-73
2024/01/11 04:13:31;;;;;;;22.27;7.93;;;;;;;-0.82;72.26;102730.69;5022576;27;96705;-74
2024/01/11 04:15:57;;;;;;;24.90;8.57;;;;;;;-0.24;69.86;102719.19;5018938;27;97096;-74
2024/01/11 04:18:24;;;;;;;21.35;7.82;;;;;;;-0.50;71.31;102712.97;5026769;27;97742;-75
2024/01/11 04:20:50;;;;;;;17.38;6.40;;;;;;;-1.17;74.15;102704.03;5024353;27;101296;-75
2024/01/11 04:23:17;;;;;;;25.83;8.10;;;;;;;-1.09;75.53;102707.84;5019065;27;98730;-72
2024/01/11 04:25:45;;;;;;;30.05;8.68;;;;;;;-0.68;74.93;102728.69;5020738;27;98310;-73
2024/01/11 04:28:11;;;;;;;24.27;8.05;;;;;;;-0.28;73.01;102728.59;5026759;27;99125;-73
2024/01/11 04:30:38;;;;;;;25.75;8.48;;;;;;;0.16;71.85;102727.72;5024031;28;97783;-76
2024/01/11 04:33:05;;;;;;;24.02;7.85;;;;;;;0.13;71.05;102714.59;5024963;27;97166;-76
2024/01/11 04:35:31;;;;;;;27.35;8.75;;;;;;;-0.19;72.96;102720.25;5011296;27;97032;-75
2024/01/11 04:37:58;;;;;;;24.33;8.45;;;;;;;-0.61;75.58;102717.72;5021799;27;99261;-75
2024/01/11 04:40:24;;;;;;;29.35;10.27;;;;;;;-0.67;77.08;102709.69;5020462;27;97714;-75
2024/01/11 04:42:52;;;;;;;28.75;8.77;;;;;;;-0.91;79.00;102732.88;5025809;27;97674;-76
2024/01/11 04:45:19;;;;;;;19.55;7.20;;;;;;;-0.74;77.83;102731.00;5026188;27;97056;-75
2024/01/11 04:47:45;;;;;;;32.80;8.77;;;;;;;-0.54;78.10;102735.34;5017784;28;98716;-76
2024/01/11 04:50:12;;;;;;;26.75;7.15;;;;;;;-0.28;75.90;102719.91;5015528;27;100648;-75
2024/01/11 04:52:38;;;;;;;24.60;8.57;;;;;;;-0.73;78.72;102708.53;5023646;27;96769;-76
2024/01/11 04:55:05;;;;;;;26.17;8.98;;;;;;;-0.65;79.27;102701.94;5025257;27;97010;-76
2024/01/11 04:57:32;;;;;;;28.85;9.15;;;;;;;-0.75;79.54;102711.06;5018246;27;98894;-76
2024/01/11 05:00:00;;;;;;;31.73;9.70;;;;;;;-0.83;79.73;102696.88;5021989;27;99071;-76
2024/01/11 05:02:26;;;;;;;29.05;9.90;;;;;;;-1.14;82.01;102683.44;5026333;28;97574;-76
2024/01/11 05:04:53;;;;;;;33.72;9.52;;;;;;;-0.77;80.98;102691.03;5020545;27;96995;-76
2024/01/11 05:07:20;;;;;;;26.88;8.48;;;;;;;-0.57;80.13;102659.88;5024327;27;97739;-76
2024/01/11 05:09:46;;;;;;;30.90;9.38;;;;;;;-0.85;80.94;102655.28;5016525;27;98807;-76
2024/01/11 05:12:12;;;;;;;28.77;9.05;;;;;;;-0.34;80.49;102686.78;5026678;27;96893;-77
2024/01/11 05:14:39;;;;;;;36.38;10.07;;;;;;;-0.21;78.78;102693.34;5028068;27;97283;-77
2024/01/11 05:17:07;;;;;;;28.38;9.23;;;;;;;0.44;77.46;102715.75;5022450;27;99006;-77
2024/01/11 05:19:34;;;;;;;36.05;9.80;;;;;;;0.93;75.04;102697.56;5020361;27;99221;-77
2024/01/11 05:22:00;;;;;;;27.10;8.20;;;;;;;0.68;75.17;102682.81;5023125;27;96783;-76
2024/01/11 05:24:27;;;;;;;28.52;9.68;;;;;;;0.37;76.73;102680.84;5022236;27;97255;-76
2024/01/11 05:26:53;;;;;;;33.97;10.63;;;;;;;0.21;77.76;102696.69;5021290;27;98862;-75
2024/01/11 05:29:20;;;;;;;30.20;9.38;;;;;;;0.18;77.81;102696.59;5018010;27;99100;-74
2024/01/11 05:31:46;;;;;;;31.70;10.52;;;;;;;0.58;77.48;102704.16;5015458;27;97854;-75
2024/01/11 05:34:14;;;;;;;31.85;10.15;;;;;;;0.75;75.47;102693.50;5011564;27;97013;-73
2024/01/11 05:36:41;;;;;;;36.80;11.07;;;;;;;0.71;75.89;102693.34;5022212;27;98757;-73
2024/01/11 05:39:07;;;;;;;33.95;11.35;;;;;;;0.47;77.00;102690.72;5019388;27;100139;-75
2024/01/11 05:41:33;;;;;;;38.03;10.73;;;;;;;0.61;77.00;102681.72;5016704;27;97375;-74
2024/01/11 05:44:00;;;;;;;33.83;11.23;;;;;;;0.42;78.84;102694.00;5021130;27;97137;-75
2024/01/11 05:46:27;;;;;;;31.20;10.10;;;;;;;0.72;76.60;102682.13;5014588;27;100560;-75
2024/01/11 05:48:53;;;;;;;39.55;11.13;;;;;;;0.65;76.45;102677.53;5013478;27;97936;-75
2024/01/11 05:51:21;;;;;;;36.10;12.25;;;;;;;0.01;78.47;102672.53;5018224;27;96810;-76
2024/01/11 05:53:47;;;;;;;29.30;10.45;;;;;;;0.12;79.54;102670.38;5022599;27;97884;-76
2024/01/11 05:56:14;;;;;;;32.50;10.50;;;;;;;0.05;80.34;102681.34;5025599;27;99172;-76
2024/01/11 05:58:40;;;;;;;28.00;10.18;;;;;;;0.34;78.79;102680.72;5024724;27;100803;-76
2024/01/11 06:01:07;;;;;;;37.63;12.15;;;;;;;0.53;77.68;102671.84;5019386;27;97280;-76
2024/01/11 06:03:34;;;;;;;34.08;10.93;;;;;;;0.33;77.67;102681.53;5011510;27;97687;-76
2024/01/11 06:06:01;;;;;;;36.67;11.55;;;;;;;0.61;77.72;102702.53;5020936;27;101415;-76
2024/01/11 06:08:29;;;;;;;37.15;11.32;;;;;;;0.69;77.27;102706.31;5020377;27;98739;-76
2024/01/11 06:10:56;;;;;;;36.17;12.02;;;;;;;0.74;76.99;102702.13;5018495;27;96806;-76
2024/01/11 06:13:22;;;;;;;41.58;11.52;;;;;;;1.08;76.38;102699.00;5016499;27;97181;-76
2024/01/11 06:15:49;;;;;;;38.25;12.27;;;;;;;1.18;75.19;102693.25;5020003;27;98921;-76
2024/01/11 06:18:16;;;;;;;35.15;11.70;;;;;;;1.17;75.01;102668.06;5017437;27;100857;-75
2024/01/11 06:20:43;;;;;;;40.80;11.80;;;;;;;1.01;75.72;102657.97;5025244;27;96892;-75
2024/01/11 06:23:09;;;;;;;38.83;13.00;;;;;;;1.14;75.90;102656.66;5025925;27;97201;-75
2024/01/11 06:25:37;;;;;;;42.33;13.45;;;;;;;1.02;76.64;102670.16;5017208;27;99146;-75
2024/01/11 06:28:06;;;;;;;43.55;13.68;;;;;;;1.41;75.45;102672.31;5018407;27;98107;-75
2024/01/11 06:30:33;;;;;;;44.03;13.15;;;;;;;1.33;75.56;102672.03;5023158;27;96692;-74
2024/01/11 06:32:59;;;;;;;39.60;13.07;;;;;;;1.57;74.43;102672.84;5026291;27;96758;-74
2024/01/11 06:35:25;;;;;;;46.10;13.45;;;;;;;1.77;73.87;102677.81;5019232;27;99641;-74
2024/01/11 06:37:52;;;;;;;41.63;13.73;;;;;;;1.81;73.37;102674.44;5025200;27;98346;-76
2024/01/11 06:40:19;;;;;;;44.33;13.52;;;;;;;1.76;72.89;102669.09;5025650;27;97317;-74
2024/01/11 06:42:47;;;;;;;44.38;14.80;;;;;;;1.66;74.61;102669.63;5026693;27;97244;-75
2024/01/11 06:45:14;;;;;;;45.90;14.85;;;;;;;1.84;73.89;102666.69;5029085;27;98483;-76
2024/01/11 06:47:40;;;;;;;48.38;14.20;;;;;;;1.50;75.38;102668.28;5029093;27;99761;-74
2024/01/11 06:50:08;;;;;;;50.95;14.63;;;;;;;1.33;76.12;102666.84;5019674;27;96945;-74
2024/01/11 06:52:34;;;;;;;45.75;14.80;;;;;;;1.49;76.43;102669.13;5019014;27;97654;-76
2024/01/11 06:55:01;;;;;;;41.33;13.43;;;;;;;1.66;75.60;102660.94;5023101;27;99427;-75
2024/01/11 06:57:27;;;;;;;50.83;13.63;;;;;;;1.54;75.71;102654.50;5021643;27;99299;-75
2024/01/11 06:59:56;;;;;;;49.35;13.82;;;;;;;1.42;76.95;102654.13;5023505;27;97889;-74
2024/01/11 07:02:22;;;;;;;42.22;13.10;;;;;;;1.37;76.96;102650.50;5022037;28;97275;-76
2024/01/11 07:04:49;;;;;;;45.33;14.20;;;;;;;1.27;77.52;102642.31;5022993;27;100473;-76
2024/01/11 07:07:15;;;;;;;47.47;14.43;;;;;;;1.54;77.47;102640.59;5029623;27;97983;-75
2024/01/11 07:09:42;;;;;;;41.83;15.00;;;;;;;1.38;77.56;102644.41;5015665;27;97397;-75
2024/01/11 07:12:10;;;;;;;50.25;15.45;;;;;;;1.25;79.14;102641.41;5014944;27;97217;-75
2024/01/11 07:14:36;;;;;;;41.13;14.13;;;;;;;1.13;79.62;102650.56;5025942;27;101156;-75
2024/01/11 07:17:05;;;;;;;46.35;14.57;;;;;;;1.49;78.89;102663.03;5025135;27;97859;-75
2024/01/11 07:19:32;;;;;;;54.13;16.27;;;;;;;2.05;76.96;102653.44;5025942;27;96724;-75
2024/01/11 07:21:58;;;;;;;52.20;15.98;;;;;;;1.79;76.73;102640.50;5021925;27;97383;-76
2024/01/11 07:24:25;;;;;;;47.38;14.07;;;;;;;1.76;77.22;102647.38;5026642;27;99338;-75
2024/01/11 07:26:51;;;;;;;47.13;16.05;;;;;;;2.33;75.71;102643.84;5015825;27;98774;-76
2024/01/11 07:29:17;;;;;;;47.72;15.63;;;;;;;1.56;77.53;102631.13;5027677;27;96764;-75
2024/01/11 07:31:44;;;;;;;46.90;15.50;;;;;;;1.46;78.61;102636.84;5027010;27;97373;-76
2024/01/11 07:34:12;;;;;;;46.55;16.00;;;;;;;1.18;79.95;102633.34;5020783;27;98290;-76
2024/01/11 07:36:38;;;;;;;50.97;15.52;;;;;;;1.25;81.13;102644.00;5019133;27;99498;-76
2024/01/11 07:39:04;;;;;;;48.40;15.50;;;;;;;1.40;80.26;102652.28;5023632;28;97281;-75
2024/01/11 07:41:31;;;;;;;45.65;14.60;;;;;;;1.48;79.68;102649.09;5024071;27;96832;-76
2024/01/11 07:43:59;;;;;;;48.40;15.85;;;;;;;1.47;79.29;102656.88;5017175;27;99358;-77
2024/01/11 07:46:25;;;;;;;39.58;13.73;;;;;;;1.43;79.72;102655.00;5023650;27;99433;-77
2024/01/11 07:48:52;;;;;;;54.30;17.08;;;;;;;1.64;79.98;102655.69;5020324;28;97180;-76
2024/01/11 07:51:20;;;;;;;48.90;16.23;;;;;;;1.75;78.83;102669.06;5025450;27;97616;-77
2024/01/11 07:53:46;;;;;;;53.55;17.02;;;;;;;2.11;77.62;102656.22;5024474;27;99395;-77
2024/01/11 07:56:13;;;;;;;49.97;16.30;;;;;;;1.61;79.47;102639.94;5022707;27;99673;-77
2024/01/11 07:58:41;;;;;;;50.20;15.82;;;;;;;1.24;81.31;102643.13;5023177;27;97304;-77
2024/01/11 08:01:08;;;;;;;48.97;15.10;;;;;;;1.30;81.38;102634.63;5024585;27;98665;-76
2024/01/11 08:03:35;;;;;;;56.28;17.17;;;;;;;1.59;80.77;102631.19;5024146;27;98922;-75
2024/01/11 08:06:01;;;;;;;51.10;15.13;;;;;;;1.29;81.16;102628.50;5018232;27;99444;-75
2024/01/11 08:08:29;;;;;;;48.13;16.02;;;;;;;0.84;83.15;102643.50;5019695;27;96817;-74
2024/01/11 08:10:56;;;;;;;56.38;16.02;;;;;;;1.06;83.44;102640.78;5022115;27;97138;-73
2024/01/11 08:13:22;;;;;;;54.10;16.98;;;;;;;1.10;83.02;102645.25;5021348;27;99050;-74
2024/01/11 08:15:49;;;;;;;57.10;17.30;;;;;;;0.91;82.80;102637.69;5023856;27;99282;-74
2024/01/11 08:18:15;;;;;;;53.78;17.25;;;;;;;0.93;83.21;102638.59;5019038;27;97178;-73
2024/01/11 08:20:42;;;;;;;53.17;16.77;;;;;;;0.77;84.07;102629.41;5014584;27;98697;-74
2024/01/11 08:23:08;;;;;;;56.13;16.10;;;;;;;0.78;84.93;102638.09;5019100;27;102276;-74
2024/01/11 08:25:36;;;;;;;59.58;16.52;;;;;;;1.03;83.71;102632.00;5021836;27;98031;-74
2024/01/11 08:28:03;;;;;;;54.75;16.40;;;;;;;0.80;85.27;102639.91;5017014;27;102732;-73
2024/01/11 08:30:30;;;;;;;66.22;18.85;;;;;;;1.02;84.36;102638.91;5014104;27;98025;-74
2024/01/11 08:32:56;;;;;;;66.78;21.77;;;;;;;1.47;82.77;102643.84;5026401;27;97729;-74
2024/01/11 08:35:23;;;;;;;57.15;18.50;;;;;;;1.38;81.83;102634.00;5023303;27;99197;-75
2024/01/11 08:37:50;;;;;;;58.83;19.60;;;;;;;1.28;82.64;102624.13;5022842;27;96810;-75
2024/01/11 08:40:16;;;;;;;54.60;17.88;;;;;;;0.72;84.58;102622.28;5018279;27;96797;-74
2024/01/11 08:42:44;;;;;;;62.15;20.67;;;;;;;0.75;86.09;102619.75;5021378;27;101705;-76
2024/01/11 08:45:17;;;;;;;66.72;19.65;;;;;;;0.28;88.22;102629.38;5009868;27;98949;-75
2024/01/11 08:47:44;;;;;;;63.97;18.25;;;;;;;0.49;88.31;102631.88;5009846;28;97480;-75
2024/01/11 08:50:13;;;;;;;58.78;18.55;;;;;;;1.09;86.33;102630.47;5012379;27;98420;-75
2024/01/11 08:52:40;;;;;;;64.32;20.27;;;;;;;1.38;83.97;102630.53;5011456;27;97702;-75
2024/01/11 08:55:07;;;;;;;63.38;17.90;;;;;;;0.96;84.70;102628.28;5025140;27;99076;-76
2024/01/11 08:57:35;;;;;;;58.55;18.38;;;;;;;1.09;85.43;102626.97;5018937;27;98648;-77
2024/01/11 09:00:03;;;;;;;64.10;18.73;;;;;;;1.26;85.09;102620.59;5022554;27;97111;-79
2024/01/11 09:02:30;;;;;;;57.10;18.25;;;;;;;1.30;85.21;102621.59;5016512;27;101869;-75
2024/01/11 09:04:56;;;;;;;62.08;19.98;;;;;;;1.51;84.41;102604.03;5026086;27;99009;-75
2024/01/11 09:07:23;;;;;;;62.85;18.40;;;;;;;1.00;86.34;102588.50;5021406;27;96852;-75
2024/01/11 09:09:49;;;;;;;49.38;15.55;;;;;;;1.02;86.37;102584.25;5023962;27;97328;-76
2024/01/11 09:12:15;;;;;;;55.05;17.95;;;;;;;1.13;85.99;102590.66;5017399;27;99327;-76
2024/01/11 09:14:42;;;;;;;52.33;14.07;;;;;;;1.18;86.16;102586.47;5022770;27;100481;-77
2024/01/11 09:17:10;;;;;;;55.60;17.58;;;;;;;1.47;85.99;102589.13;5022880;27;98774;-75
2024/01/11 09:19:37;;;;;;;53.50;17.02;;;;;;;1.20;85.62;102571.81;5023074;27;97458;-76
2024/01/11 09:22:04;;;;;;;48.72;17.00;;;;;;;0.72;87.72;102584.09;5010187;27;102331;-76
2024/01/11 09:24:30;;;;;;;53.83;16.73;;;;;;;0.77;87.44;102592.97;5015543;27;98943;-75
2024/01/11 09:26:56;;;;;;;60.20;18.35;;;;;;;0.89;87.41;102592.47;5016317;27;97803;-76
2024/01/11 09:29:23;;;;;;;54.47;18.05;;;;;;;1.35;85.88;102605.28;5019266;27;96892;-76
2024/01/11 09:31:49;;;;;;;56.85;18.13;;;;;;;1.95;83.40;102621.00;5017026;27;99303;-76
2024/01/11 09:34:18;;;;;;;57.75;17.58;;;;;;;1.50;83.71;102610.97;5023508;27;99038;-75
2024/01/11 09:36:45;;;;;;;58.17;19.52;;;;;;;1.18;86.47;102606.47;5021428;27;97324;-76
2024/01/11 09:39:13;;;;;;;53.85;17.23;;;;;;;1.43;85.75;102608.13;5024169;27;97200;-76
2024/01/11 09:41:43;;;;;;;47.92;16.52;;;;;;;1.51;85.19;102585.81;5018259;27;98854;-76
2024/01/11 09:44:10;;;;;;;52.85;17.67;;;;;;;1.42;84.97;102582.91;5025456;27;98557;-76
2024/01/11 09:46:37;;;;;;;58.00;18.30;;;;;;;1.77;84.00;102597.00;5018062;27;96902;-76
2024/01/11 09:49:04;;;;;;;57.22;18.27;;;;;;;1.77;84.09;102602.22;5021145;27;96991;-77
2024/01/11 09:51:35;;;;;;;58.25;17.90;;;;;;;2.17;83.13;102604.22;5020205;27;98904;-76
2024/01/11 09:54:01;;;;;;;52.25;17.75;;;;;;;2.09;81.64;102611.88;5018936;27;98795;-77
2024/01/11 09:56:28;;;;;;;52.25;17.70;;;;;;;2.28;81.44;102610.66;5022273;27;96791;-76
2024/01/11 09:58:54;;;;;;;53.72;18.48;;;;;;;2.30;80.73;102616.78;5027635;27;96900;-76
2024/01/11 10:01:21;;;;;;;49.70;16.00;;;;;;;1.50;82.58;102616.19;5026508;27;99336;-76
2024/01/11 10:03:48;;;;;;;39.33;13.05;;;;;;;1.34;84.44;102616.53;5018185;27;97886;-77
2024/01/11 10:06:16;;;;;;;55.97;18.45;;;;;;;1.26;86.08;102620.59;5028698;27;97594;-75
2024/01/11 10:08:44;;;;;;;45.85;16.05;;;;;;;1.40;85.36;102616.72;5023285;27;97282;-76
2024/01/11 10:11:11;;;;;;;53.92;17.55;;;;;;;1.68;84.99;102618.47;5022756;27;102214;-75
2024/01/11 10:13:38;;;;;;;58.67;19.13;;;;;;;1.96;83.88;102617.56;5028627;27;98869;-76
2024/01/11 10:16:07;;;;;;;53.42;17.55;;;;;;;1.84;83.57;102615.44;5025029;27;98759;-75
2024/01/11 10:18:33;;;;;;;56.05;18.25;;;;;;;1.52;84.79;102606.66;5027096;27;97394;-76
2024/01/11 10:21:00;;;;;;;60.70;19.88;;;;;;;1.57;85.10;102605.13;5022093;27;98826;-75
2024/01/11 10:23:28;;;;;;;52.50;17.48;;;;;;;1.35;85.36;102601.78;5029399;27;99581;-75
2024/01/11 10:25:57;;;;;;;60.40;20.50;;;;;;;1.29;86.69;102594.66;5026318;27;97289;-75
2024/01/11 10:28:23;;;;;;;58.65;18.85;;;;;;;1.31;86.02;102586.91;5026458;27;97365;-75
2024/01/11 10:30:52;;;;;;;57.40;19.60;;;;;;;0.96;86.63;102588.38;5020064;27;101814;-76
2024/01/11 10:33:20;;;;;;;59.75;19.60;;;;;;;1.00;87.94;102575.50;5024001;27;99327;-77
2024/01/11 10:35:48;;;;;;;59.03;18.88;;;;;;;0.91;87.71;102583.00;5027016;27;97976;-76
2024/01/11 10:38:16;;;;;;;56.33;18.80;;;;;;;1.05;87.85;102567.84;5022891;27;96845;-75
2024/01/11 10:40:43;;;;;;;61.63;20.15;;;;;;;1.15;87.34;102576.00;5023345;27;99984;-75
2024/01/11 10:43:13;;;;;;;59.55;20.02;;;;;;;1.64;85.46;102577.53;5019782;27;98839;-75
2024/01/11 10:45:39;;;;;;;49.67;17.77;;;;;;;1.44;84.86;102578.63;5022884;27;97208;-75
2024/01/11 10:48:08;;;;;;;55.80;18.98;;;;;;;1.89;83.65;102589.53;5020386;27;98803;-76
2024/01/11 10:50:39;;;;;;;62.08;20.33;;;;;;;2.09;82.46;102592.72;5019159;27;99827;-76
2024/01/11 10:53:20;;;;;;;54.75;18.63;;;;;;;2.33;81.36;102586.47;5019792;27;99157;-76
2024/01/11 10:55:48;;;;;;;60.45;20.50;;;;;;;2.69;79.50;102589.13;5020252;27;97064;-76
2024/01/11 10:58:17;;;;;;;58.35;19.27;;;;;;;2.20;80.79;102567.81;5024177;27;99541;-76
2024/01/11 11:00:43;;;;;;;55.53;19.90;;;;;;;2.23;80.90;102576.59;5018980;27;99086;-77
2024/01/11 11:03:13;;;;;;;67.80;21.40;;;;;;;2.53;79.89;102575.66;5024022;27;99261;-76
2024/01/11 11:05:42;;;;;;;57.08;19.45;;;;;;;2.59;80.07;102579.31;5026461;27;97589;-76
2024/01/11 11:08:11;;;;;;;50.97;17.23;;;;;;;2.27;79.30;102569.75;5025583;27;97302;-76
2024/01/11 11:10:42;;;;;;;55.17;20.08;;;;;;;2.37;80.54;102564.81;5016354;27;98801;-75
2024/01/11 11:13:10;;;;;;;60.97;20.17;;;;;;;2.38;80.01;102566.59;5022108;27;99007;-78
2024/01/11 11:15:40;;;;;;;57.13;20.92;;;;;;;2.50;79.48;102568.63;5021090;27;97561;-75